Pittsburgh, Pennsylvania
Traffic Map
Current Weather Conditions
Pittsburgh, Pennsylvania
Overcast
Overcast
25°
Feels Like: 26°
Wind Chill: 25° Ceiling: 3800
Heat Index: 26° Visibility: 10mi
Dew Point: 19° Wind: 6mph
Humidity: 71% Direction: 190° (S)
Pressure: 30.01in Gusts: 0mph
Raw Report DataKAGC 221653Z 19005KT 10SM FEW020 BKN038 OVC100 25/19 A3001 RMK AO2 SLP158 T02500194
Traffic Incident Summary
Active as of:
Severity:
Category:
InformationThere was an issue retrieving the traffic information for this location. Please try a different location or try again shortly.
Advertisements
Track Severe Weather on mobile